createdAt,value
2018-11-07T00:01:12.038Z,99766.52
2018-11-07T00:03:40.435Z,99769.55
2018-11-07T00:06:08.897Z,99765.24
2018-11-07T00:08:38.408Z,99765.16
2018-11-07T00:11:07.037Z,99776.27
2018-11-07T00:13:35.827Z,99776.31
2018-11-07T00:16:05.165Z,99771.30
2018-11-07T00:18:33.585Z,99770.49
2018-11-07T00:21:02.079Z,99771.74
2018-11-07T00:23:30.544Z,99768.88
2018-11-07T00:25:59.040Z,99771.43
2018-11-07T00:28:27.487Z,99775.84
2018-11-07T00:30:55.962Z,99779.25
2018-11-07T00:33:24.326Z,99774.23
2018-11-07T00:35:52.865Z,99770.95
2018-11-07T00:38:21.429Z,99775.28
2018-11-07T00:40:49.799Z,99767.67
2018-11-07T00:43:18.355Z,99777.63
2018-11-07T00:45:46.736Z,99779.00
2018-11-07T00:48:15.247Z,99782.47
2018-11-07T00:50:43.674Z,99779.96
2018-11-07T00:53:12.101Z,99780.36
2018-11-07T00:55:41.151Z,99777.83
2018-11-07T00:58:09.938Z,99778.30
2018-11-07T01:00:38.296Z,99769.83
2018-11-07T01:03:38.111Z,99768.11
2018-11-07T01:06:18.142Z,99764.73
2018-11-07T01:08:46.621Z,99766.47
2018-11-07T01:11:15.090Z,99761.03
2018-11-07T01:13:43.558Z,99765.66
2018-11-07T01:16:12.028Z,99767.95
2018-11-07T01:18:40.628Z,99765.32
2018-11-07T01:21:09.115Z,99761.39
2018-11-07T01:23:37.823Z,99765.00
2018-11-07T01:26:07.042Z,99754.90
2018-11-07T01:28:35.553Z,99758.44
2018-11-07T01:31:04.521Z,99758.90
2018-11-07T01:33:33.373Z,99757.77
2018-11-07T01:36:02.120Z,99758.33
2018-11-07T01:38:31.209Z,99746.06
2018-11-07T01:40:59.723Z,99746.95
2018-11-07T01:43:28.247Z,99740.59
2018-11-07T01:45:56.851Z,99734.31
2018-11-07T01:48:26.274Z,99736.05
2018-11-07T01:50:54.747Z,99737.81
2018-11-07T01:53:23.359Z,99734.42
2018-11-07T01:55:51.934Z,99741.41
2018-11-07T01:58:20.817Z,99734.63
2018-11-07T02:00:49.299Z,99740.70
2018-11-07T02:03:17.757Z,99742.06
2018-11-07T02:05:46.132Z,99746.45
2018-11-07T02:08:14.539Z,99749.96
2018-11-07T02:10:43.021Z,99752.14
2018-11-07T02:13:11.485Z,99758.88
2018-11-07T02:15:40.429Z,99761.11
2018-11-07T02:18:08.921Z,99760.75
2018-11-07T02:20:37.504Z,99757.31
2018-11-07T02:23:05.991Z,99760.69
2018-11-07T02:25:34.561Z,99762.38
2018-11-07T02:28:03.009Z,99767.48
2018-11-07T02:30:32.002Z,99758.97
2018-11-07T02:33:00.505Z,99767.88
2018-11-07T02:35:29.030Z,99767.58
2018-11-07T02:37:57.476Z,99781.89
2018-11-07T02:40:25.944Z,99779.50
2018-11-07T02:42:54.379Z,99779.05
2018-11-07T02:45:22.877Z,99771.89
2018-11-07T02:47:51.294Z,99768.96
2018-11-07T02:50:20.339Z,99764.23
2018-11-07T02:52:50.220Z,99769.70
2018-11-07T02:55:18.743Z,99772.70
2018-11-07T02:57:47.119Z,99775.67
2018-11-07T03:00:15.560Z,99780.36
2018-11-07T03:02:44.033Z,99777.05
2018-11-07T03:05:12.555Z,99777.53
2018-11-07T03:07:42.021Z,99784.88
2018-11-07T03:10:11.930Z,99781.30
2018-11-07T03:12:40.835Z,99782.95
2018-11-07T03:15:10.157Z,99785.13
2018-11-07T03:17:39.233Z,99790.21
2018-11-07T03:20:09.154Z,99786.38
2018-11-07T03:22:40.670Z,99782.13
2018-11-07T03:25:09.184Z,99780.58
2018-11-07T03:27:37.624Z,99784.41
2018-11-07T03:30:07.861Z,99778.45
2018-11-07T03:32:36.382Z,99776.36
2018-11-07T03:35:05.143Z,99781.00
2018-11-07T03:37:34.118Z,99778.48
2018-11-07T03:40:02.598Z,99778.92
2018-11-07T03:42:30.945Z,99779.88
2018-11-07T03:45:00.097Z,99782.45
2018-11-07T03:47:29.045Z,99783.80
2018-11-07T03:49:57.403Z,99777.02
2018-11-07T03:52:25.864Z,99788.16
2018-11-07T03:54:54.261Z,99778.73
2018-11-07T03:57:22.793Z,99779.08
2018-11-07T03:59:51.250Z,99782.47
2018-11-07T04:02:20.801Z,99788.06
2018-11-07T04:04:49.197Z,99789.95
2018-11-07T04:07:18.112Z,99784.91
2018-11-07T04:09:47.209Z,99772.88
2018-11-07T04:12:15.673Z,99781.02
2018-11-07T04:14:44.156Z,99775.71
2018-11-07T04:17:12.612Z,99770.70
2018-11-07T04:19:41.087Z,99776.48
2018-11-07T04:22:09.586Z,99776.55
2018-11-07T04:24:38.131Z,99776.99
2018-11-07T04:27:06.611Z,99792.70
2018-11-07T04:29:35.015Z,99793.58
2018-11-07T04:32:04.099Z,99786.80
2018-11-07T04:34:32.522Z,99784.67
2018-11-07T04:37:00.948Z,99777.95
2018-11-07T04:39:29.341Z,99774.66
2018-11-07T04:41:57.730Z,99782.35
2018-11-07T04:44:26.171Z,99781.95
2018-11-07T04:46:54.570Z,99782.81
2018-11-07T04:49:22.981Z,99783.75
2018-11-07T04:51:51.365Z,99790.05
2018-11-07T04:54:19.751Z,99791.27
2018-11-07T04:56:48.183Z,99792.97
2018-11-07T04:59:16.650Z,99798.00
2018-11-07T05:01:45.124Z,99805.63
2018-11-07T05:04:14.916Z,99802.64
2018-11-07T05:06:43.407Z,99810.72
2018-11-07T05:09:11.915Z,99820.00
2018-11-07T05:11:40.440Z,99817.01
2018-11-07T05:14:08.829Z,99816.17
2018-11-07T05:16:37.712Z,99811.91
2018-11-07T05:19:06.263Z,99811.08
2018-11-07T05:21:34.743Z,99824.20
2018-11-07T05:24:03.374Z,99818.73
2018-11-07T05:26:31.843Z,99825.91
2018-11-07T05:29:00.347Z,99840.72
2018-11-07T05:31:29.075Z,99833.20
2018-11-07T05:33:57.538Z,99827.68
2018-11-07T05:36:26.107Z,99827.75
2018-11-07T05:38:54.661Z,99824.31
2018-11-07T05:41:23.065Z,99821.72
2018-11-07T05:43:52.086Z,99822.14
2018-11-07T05:46:20.559Z,99820.89
2018-11-07T05:48:49.507Z,99829.34
2018-11-07T05:51:18.053Z,99830.67
2018-11-07T05:53:46.932Z,99836.25
2018-11-07T05:56:15.580Z,99843.05
2018-11-07T05:58:44.293Z,99844.28
2018-11-07T06:01:12.709Z,99850.63
2018-11-07T06:03:41.522Z,99853.61
2018-11-07T06:06:09.963Z,99861.23
2018-11-07T06:08:38.450Z,99864.17
2018-11-07T06:11:07.000Z,99861.63
2018-11-07T06:13:36.892Z,99859.08
2018-11-07T06:16:05.534Z,99855.27
2018-11-07T06:18:34.008Z,99853.95
2018-11-07T06:21:02.498Z,99859.02
2018-11-07T06:23:31.081Z,99865.77
2018-11-07T06:25:59.548Z,99868.31
2018-11-07T06:28:27.995Z,99878.48
2018-11-07T06:30:56.431Z,99875.94
2018-11-07T06:33:24.935Z,99870.80
2018-11-07T06:35:53.374Z,99874.22
2018-11-07T06:38:22.174Z,99882.63
2018-11-07T06:40:50.613Z,99877.55
2018-11-07T06:43:19.121Z,99880.95
2018-11-07T06:45:47.480Z,99887.72
2018-11-07T06:48:15.912Z,99894.05
2018-11-07T06:50:44.316Z,99888.09
2018-11-07T06:53:12.690Z,99889.35
2018-11-07T06:55:41.162Z,99894.40
2018-11-07T06:58:09.965Z,99889.68
2018-11-07T07:00:39.485Z,99893.45
2018-11-07T07:03:08.462Z,99892.55
2018-11-07T07:05:37.618Z,99905.20
2018-11-07T07:08:06.000Z,99903.04
2018-11-07T07:10:34.840Z,99901.32
2018-11-07T07:13:03.928Z,99905.06
2018-11-07T07:15:32.405Z,99897.37
2018-11-07T07:18:00.889Z,99892.64
2018-11-07T07:20:29.335Z,99898.05
2018-11-07T07:22:57.775Z,99903.89
2018-11-07T07:25:26.244Z,99908.41
2018-11-07T07:27:54.621Z,99914.88
2018-11-07T07:30:23.111Z,99914.58
2018-11-07T07:32:51.900Z,99914.34
2018-11-07T07:35:20.343Z,99914.99
2018-11-07T07:37:48.688Z,99924.45
2018-11-07T07:40:17.526Z,99927.90
2018-11-07T07:42:46.596Z,99927.76
2018-11-07T07:45:16.567Z,99927.67
2018-11-07T07:47:45.367Z,99922.30
2018-11-07T07:50:16.175Z,99920.19
2018-11-07T07:52:45.006Z,99920.61
2018-11-07T07:55:13.709Z,99924.99
2018-11-07T07:57:42.608Z,99921.50
2018-11-07T08:00:13.150Z,99925.84
2018-11-07T08:02:44.022Z,99932.37
2018-11-07T08:05:12.697Z,99928.27
2018-11-07T08:07:41.621Z,99930.81
2018-11-07T08:10:12.229Z,99931.87
2018-11-07T08:12:41.162Z,99941.55
2018-11-07T08:15:10.197Z,99951.58
2018-11-07T08:17:39.079Z,99950.44
2018-11-07T08:20:09.003Z,99948.25
2018-11-07T08:22:37.440Z,99952.38
2018-11-07T08:25:05.968Z,99945.13
2018-11-07T08:27:34.693Z,99947.02
2018-11-07T08:30:03.119Z,99950.88
2018-11-07T08:32:31.845Z,99959.81
2018-11-07T08:35:00.324Z,99959.26
2018-11-07T08:37:29.357Z,99960.89
2018-11-07T08:39:57.875Z,99972.09
2018-11-07T08:42:26.520Z,99975.00
2018-11-07T08:44:55.078Z,99979.85
2018-11-07T08:47:23.600Z,99980.05
2018-11-07T08:49:52.043Z,99987.28
2018-11-07T08:52:20.625Z,99997.12
2018-11-07T08:54:49.142Z,99992.98
2018-11-07T08:57:17.624Z,99990.88
2018-11-07T08:59:46.032Z,99991.48
2018-11-07T09:02:14.497Z,99998.91
2018-11-07T09:04:42.941Z,99994.88
2018-11-07T09:07:11.542Z,99988.53
2018-11-07T09:09:39.958Z,99981.70
2018-11-07T09:12:08.443Z,99984.47
2018-11-07T09:14:36.932Z,99987.81
2018-11-07T09:17:05.461Z,99990.05
2018-11-07T09:19:33.891Z,99992.94
2018-11-07T09:22:02.590Z,99988.29
2018-11-07T09:24:31.071Z,99987.52
2018-11-07T09:26:59.509Z,99988.37
2018-11-07T09:29:28.005Z,99991.95
2018-11-07T09:31:56.412Z,99994.78
2018-11-07T09:34:24.841Z,99993.83
2018-11-07T09:36:53.252Z,99999.38
2018-11-07T09:39:22.477Z,100001.09
2018-11-07T09:41:50.851Z,99997.27
2018-11-07T09:44:19.235Z,99999.33
2018-11-07T09:46:47.611Z,100006.28
2018-11-07T09:49:16.179Z,100007.28
2018-11-07T09:51:44.580Z,100004.91
2018-11-07T09:54:13.083Z,100011.63
2018-11-07T09:56:41.632Z,100014.78
2018-11-07T09:59:10.215Z,100015.31
2018-11-07T10:01:38.730Z,100000.22
2018-11-07T10:04:07.307Z,100015.97
2018-11-07T10:06:35.923Z,100017.06
2018-11-07T10:09:06.066Z,100021.08
2018-11-07T10:11:34.604Z,100021.34
2018-11-07T10:14:03.130Z,100024.16
2018-11-07T10:16:31.529Z,100022.08
2018-11-07T10:18:59.930Z,100029.39
2018-11-07T10:21:28.327Z,100024.16
2018-11-07T10:23:56.729Z,100017.83
2018-11-07T10:26:25.091Z,100019.32
2018-11-07T10:28:53.675Z,100015.25
2018-11-07T10:31:22.200Z,100006.23
2018-11-07T10:33:50.547Z,100005.25
2018-11-07T10:36:18.888Z,100014.00
2018-11-07T10:38:47.409Z,100010.89
2018-11-07T10:41:15.752Z,100012.32
2018-11-07T10:43:44.232Z,100013.47
2018-11-07T10:46:12.754Z,100005.68
2018-11-07T10:48:41.207Z,100002.73
2018-11-07T10:51:09.891Z,100008.42
2018-11-07T10:53:38.319Z,100006.89
2018-11-07T10:56:06.817Z,100001.60
2018-11-07T10:58:35.397Z,100002.50
2018-11-07T11:01:09.504Z,100009.27
2018-11-07T11:03:38.288Z,100003.44
2018-11-07T11:06:06.773Z,100011.42
2018-11-07T11:08:35.599Z,100007.39
2018-11-07T11:11:04.512Z,100003.75
2018-11-07T11:13:33.346Z,100005.53
2018-11-07T11:16:01.781Z,100006.73
2018-11-07T11:18:30.312Z,100009.10
2018-11-07T11:20:58.923Z,100004.68
2018-11-07T11:23:27.458Z,100004.28
2018-11-07T11:25:56.235Z,100005.58
2018-11-07T11:28:24.760Z,99999.18
2018-11-07T11:30:53.584Z,100005.23
2018-11-07T11:33:22.127Z,100001.36
2018-11-07T11:35:50.823Z,100001.87
2018-11-07T11:38:19.494Z,100008.16
2018-11-07T11:40:48.184Z,100008.72
2018-11-07T11:43:16.700Z,100003.58
2018-11-07T11:45:45.199Z,100006.13
2018-11-07T11:48:13.744Z,100006.67
2018-11-07T11:50:42.275Z,100013.78
2018-11-07T11:53:10.879Z,100010.75
2018-11-07T11:55:39.697Z,100007.01
2018-11-07T11:58:08.289Z,100002.45
2018-11-07T12:00:37.302Z,100005.89
2018-11-07T12:03:05.917Z,100008.23
2018-11-07T12:05:34.423Z,100004.59
2018-11-07T12:08:02.980Z,99999.47
2018-11-07T12:10:31.445Z,99993.09
2018-11-07T12:12:59.864Z,99992.31
2018-11-07T12:15:28.731Z,99992.27
2018-11-07T12:17:57.502Z,99987.88
2018-11-07T12:20:26.109Z,99983.75
2018-11-07T12:22:54.632Z,99981.55
2018-11-07T12:25:23.189Z,99984.66
2018-11-07T12:27:51.865Z,99983.17
2018-11-07T12:30:22.648Z,99982.89
2018-11-07T12:32:52.553Z,99986.02
2018-11-07T12:35:21.820Z,99987.86
2018-11-07T12:37:50.399Z,99988.75
2018-11-07T12:40:19.473Z,99988.53
2018-11-07T12:42:47.994Z,99985.85
2018-11-07T12:45:17.426Z,99987.69
2018-11-07T12:47:46.139Z,99985.39
2018-11-07T12:50:17.527Z,99982.52
2018-11-07T12:52:46.448Z,99987.08
2018-11-07T12:55:15.389Z,99984.64
2018-11-07T12:57:44.056Z,99980.52
2018-11-07T13:00:15.212Z,99981.27
2018-11-07T13:02:43.754Z,99980.88
2018-11-07T13:05:13.979Z,99980.34
2018-11-07T13:07:43.179Z,99983.90
2018-11-07T13:10:15.436Z,99986.69
2018-11-07T13:12:44.579Z,99988.41
2018-11-07T13:15:13.687Z,99989.34
2018-11-07T13:17:42.316Z,99990.42
2018-11-07T13:20:14.058Z,99991.73
2018-11-07T13:22:43.420Z,99990.35
2018-11-07T13:25:12.640Z,99991.71
2018-11-07T13:27:41.107Z,99993.05
2018-11-07T13:30:13.599Z,99991.94
2018-11-07T13:32:42.183Z,99993.45
2018-11-07T13:35:11.501Z,99992.73
2018-11-07T13:37:40.720Z,99994.20
2018-11-07T13:40:12.028Z,99999.16
2018-11-07T13:42:40.548Z,100003.75
2018-11-07T13:45:11.156Z,100005.25
2018-11-07T13:47:40.541Z,100006.55
2018-11-07T13:50:09.505Z,100008.92
2018-11-07T13:52:37.937Z,100009.89
2018-11-07T13:55:08.083Z,100011.72
2018-11-07T13:57:37.758Z,100011.18
2018-11-07T14:00:09.636Z,100015.53
2018-11-07T14:02:38.260Z,100014.77
2018-11-07T14:05:07.834Z,100013.47
2018-11-07T14:07:36.445Z,100019.34
2018-11-07T14:10:06.630Z,100014.92
2018-11-07T14:12:35.362Z,100016.06
2018-11-07T14:15:04.124Z,100015.23
2018-11-07T14:17:33.012Z,100017.75
2018-11-07T14:20:01.667Z,100023.30
2018-11-07T14:22:30.373Z,100022.41
2018-11-07T14:24:58.915Z,100019.36
2018-11-07T14:27:27.483Z,100024.00
2018-11-07T14:29:56.713Z,100021.55
2018-11-07T14:32:25.222Z,100021.66
2018-11-07T14:34:53.734Z,100018.45
2018-11-07T14:37:22.291Z,100015.27
2018-11-07T14:39:50.724Z,100027.96
2018-11-07T14:42:19.221Z,100031.61
2018-11-07T14:44:47.655Z,100033.04
2018-11-07T14:47:16.106Z,100038.05
2018-11-07T14:49:44.601Z,100033.23
2018-11-07T14:52:13.064Z,100037.28
2018-11-07T14:54:41.530Z,100039.16
2018-11-07T14:57:09.911Z,100035.22
2018-11-07T14:59:38.318Z,100037.70
2018-11-07T15:02:07.046Z,100044.48
2018-11-07T15:04:35.445Z,100040.44
2018-11-07T15:07:03.949Z,100041.95
2018-11-07T15:09:32.428Z,100040.34
2018-11-07T15:12:00.860Z,100041.95
2018-11-07T15:14:29.307Z,100043.00
2018-11-07T15:16:57.803Z,100043.80
2018-11-07T15:19:26.323Z,100056.58
2018-11-07T15:21:54.770Z,100059.89
2018-11-07T15:24:23.501Z,100059.31
2018-11-07T15:26:52.192Z,100061.18
2018-11-07T15:29:20.727Z,100059.95
2018-11-07T15:31:49.507Z,100060.30
2018-11-07T15:34:18.042Z,100063.14
2018-11-07T15:36:46.540Z,100065.09
2018-11-07T15:39:15.920Z,100067.34
2018-11-07T15:41:44.308Z,100065.48
2018-11-07T15:44:12.695Z,100070.63
2018-11-07T15:46:41.166Z,100069.27
2018-11-07T15:49:09.581Z,100073.83
2018-11-07T15:51:39.182Z,100074.69
2018-11-07T15:54:08.119Z,100074.42
2018-11-07T15:56:36.721Z,100078.20
2018-11-07T15:59:05.206Z,100087.50
2018-11-07T16:01:33.631Z,100089.58
2018-11-07T16:04:02.880Z,100085.24
2018-11-07T16:06:31.248Z,100091.00
2018-11-07T16:09:00.074Z,100092.59
2018-11-07T16:11:30.183Z,100097.30
2018-11-07T16:13:58.595Z,100103.28
2018-11-07T16:16:27.767Z,100104.51
2018-11-07T16:18:56.439Z,100105.16
2018-11-07T16:21:24.808Z,100098.61
2018-11-07T16:23:53.569Z,100102.42
2018-11-07T16:26:21.948Z,100104.87
2018-11-07T16:28:50.485Z,100113.13
2018-11-07T16:31:19.018Z,100114.13
2018-11-07T16:33:47.489Z,100111.84
2018-11-07T16:36:16.152Z,100117.52
2018-11-07T16:38:44.688Z,100117.39
2018-11-07T16:41:13.146Z,100120.98
2018-11-07T16:43:41.547Z,100115.94
2018-11-07T16:46:09.967Z,100122.02
2018-11-07T16:48:40.861Z,100120.59
2018-11-07T16:51:09.896Z,100118.80
2018-11-07T16:53:38.491Z,100121.44
2018-11-07T16:56:07.212Z,100127.00
2018-11-07T16:58:35.614Z,100133.91
2018-11-07T17:01:05.970Z,100133.15
2018-11-07T17:03:34.347Z,100135.80
2018-11-07T17:06:02.837Z,100135.61
2018-11-07T17:08:31.296Z,100138.21
2018-11-07T17:10:59.806Z,100139.23
2018-11-07T17:13:28.282Z,100140.62
2018-11-07T17:15:57.488Z,100142.39
2018-11-07T17:18:26.088Z,100143.09
2018-11-07T17:20:54.640Z,100136.77
2018-11-07T17:23:23.080Z,100142.58
2018-11-07T17:25:51.574Z,100143.32
2018-11-07T17:28:19.988Z,100150.75
2018-11-07T17:30:48.523Z,100152.52
2018-11-07T17:33:16.960Z,100151.73
2018-11-07T17:35:45.431Z,100148.70
2018-11-07T17:38:14.011Z,100153.80
2018-11-07T17:40:42.527Z,100159.16
2018-11-07T17:43:11.592Z,100163.55
2018-11-07T17:45:39.967Z,100169.55
2018-11-07T17:48:08.515Z,100165.95
2018-11-07T17:50:36.932Z,100173.36
2018-11-07T17:53:05.527Z,100162.88
2018-11-07T17:55:33.881Z,100169.33
2018-11-07T17:58:02.355Z,100169.95
2018-11-07T18:00:33.335Z,100172.36
2018-11-07T18:03:01.821Z,100175.34
2018-11-07T18:05:30.195Z,100169.98
2018-11-07T18:07:58.539Z,100171.52
2018-11-07T18:10:26.948Z,100178.03
2018-11-07T18:12:55.364Z,100178.63
2018-11-07T18:15:23.860Z,100188.08
2018-11-07T18:17:52.235Z,100189.33
2018-11-07T18:20:20.703Z,100197.50
2018-11-07T18:22:49.384Z,100196.70
2018-11-07T18:25:18.252Z,100191.62
2018-11-07T18:27:46.622Z,100193.16
2018-11-07T18:30:16.147Z,100191.16
2018-11-07T18:32:45.228Z,100199.47
2018-11-07T18:35:14.997Z,100195.20
2018-11-07T18:37:43.730Z,100194.73
2018-11-07T18:40:14.155Z,100186.12
2018-11-07T18:42:42.679Z,100194.34
2018-11-07T18:45:12.160Z,100192.31
2018-11-07T18:47:41.874Z,100193.02
2018-11-07T18:50:11.710Z,100197.30
2018-11-07T18:52:41.904Z,100199.42
2018-11-07T18:55:13.321Z,100207.19
2018-11-07T18:57:42.544Z,100213.26
2018-11-07T19:00:12.874Z,100212.50
2018-11-07T19:02:41.927Z,100219.02
2018-11-07T19:05:10.924Z,100227.62
2018-11-07T19:07:39.325Z,100228.58
2018-11-07T19:10:12.265Z,100233.39
2018-11-07T19:12:41.531Z,100242.38
2018-11-07T19:15:12.564Z,100242.43
2018-11-07T19:17:43.914Z,100239.87
2018-11-07T19:20:13.632Z,100243.78
2018-11-07T19:22:42.111Z,100240.08
2018-11-07T19:25:13.307Z,100240.97
2018-11-07T19:27:41.691Z,100241.83
2018-11-07T19:30:13.324Z,100239.69
2018-11-07T19:32:42.741Z,100240.37
2018-11-07T19:35:12.531Z,100245.50
2018-11-07T19:37:41.428Z,100237.64
2018-11-07T19:40:12.043Z,100236.61
2018-11-07T19:42:40.750Z,100242.29
2018-11-07T19:45:11.853Z,100249.44
2018-11-07T19:47:41.024Z,100249.83
2018-11-07T19:50:12.580Z,100254.58
2018-11-07T19:52:40.974Z,100258.11
2018-11-07T19:55:12.269Z,100258.98
2018-11-07T19:57:40.720Z,100261.59
2018-11-07T20:00:12.531Z,100268.17
2018-11-07T20:02:41.024Z,100268.56
2018-11-07T20:05:09.404Z,100271.74
2018-11-07T20:07:38.563Z,100272.29
2018-11-07T20:10:10.752Z,100272.30
2018-11-07T20:12:39.484Z,100276.22
2018-11-07T20:15:09.048Z,100279.28
2018-11-07T20:17:37.527Z,100276.42
2018-11-07T20:20:06.160Z,100286.25
2018-11-07T20:22:34.633Z,100282.81
2018-11-07T20:25:02.983Z,100286.62
2018-11-07T20:27:31.624Z,100284.06
2018-11-07T20:30:00.276Z,100286.61
2018-11-07T20:32:28.659Z,100284.06
2018-11-07T20:34:57.070Z,100284.91
2018-11-07T20:37:25.468Z,100291.59
2018-11-07T20:39:53.858Z,100291.74
2018-11-07T20:42:22.231Z,100293.86
2018-11-07T20:44:51.485Z,100289.20
2018-11-07T20:47:19.911Z,100298.69
2018-11-07T20:49:48.291Z,100302.13
2018-11-07T20:52:16.707Z,100302.17
2018-11-07T20:54:45.145Z,100309.44
2018-11-07T20:57:13.527Z,100313.79
2018-11-07T20:59:42.009Z,100307.78
2018-11-07T21:02:10.432Z,100312.01
2018-11-07T21:04:38.863Z,100311.19
2018-11-07T21:07:07.307Z,100313.97
2018-11-07T21:09:35.720Z,100316.89
2018-11-07T21:12:04.450Z,100317.70
2018-11-07T21:14:33.018Z,100321.17
2018-11-07T21:17:01.583Z,100310.98
2018-11-07T21:19:30.077Z,100322.91
2018-11-07T21:21:58.628Z,100326.36
2018-11-07T21:24:27.329Z,100328.49
2018-11-07T21:26:55.947Z,100329.83
2018-11-07T21:29:24.319Z,100335.92
2018-11-07T21:31:53.562Z,100337.20
2018-11-07T21:34:22.270Z,100339.77
2018-11-07T21:36:51.363Z,100341.49
2018-11-07T21:39:21.385Z,100343.72
2018-11-07T21:41:49.838Z,100343.73
2018-11-07T21:44:18.316Z,100342.97
2018-11-07T21:46:46.929Z,100345.97
2018-11-07T21:49:15.269Z,100352.41
2018-11-07T21:51:43.831Z,100352.61
2018-11-07T21:54:12.362Z,100351.73
2018-11-07T21:56:40.997Z,100355.55
2018-11-07T21:59:09.341Z,100356.84
2018-11-07T22:01:38.066Z,100354.33
2018-11-07T22:04:06.780Z,100355.23
2018-11-07T22:06:35.208Z,100357.38
2018-11-07T22:09:04.284Z,100363.70
2018-11-07T22:11:32.738Z,100359.44
2018-11-07T22:14:01.139Z,100360.31
2018-11-07T22:16:29.665Z,100359.49
2018-11-07T22:18:58.122Z,100359.56
2018-11-07T22:21:26.814Z,100358.29
2018-11-07T22:23:57.428Z,100359.16
2018-11-07T22:26:25.943Z,100363.88
2018-11-07T22:28:54.345Z,100365.23
2018-11-07T22:31:22.867Z,100371.60
2018-11-07T22:33:51.237Z,100373.77
2018-11-07T22:36:19.725Z,100375.94
2018-11-07T22:38:48.252Z,100378.47
2018-11-07T22:41:16.745Z,100381.51
2018-11-07T22:43:45.296Z,100378.53
2018-11-07T22:46:13.811Z,100379.02
2018-11-07T22:48:43.041Z,100382.89
2018-11-07T22:51:11.515Z,100381.20
2018-11-07T22:53:39.887Z,100384.19
2018-11-07T22:56:13.387Z,100388.89
2018-11-07T22:58:41.764Z,100391.00
2018-11-07T23:01:15.424Z,100396.16
2018-11-07T23:03:44.237Z,100397.86
2018-11-07T23:06:12.675Z,100401.73
2018-11-07T23:08:41.125Z,100404.77
2018-11-07T23:11:09.517Z,100406.47
2018-11-07T23:13:37.872Z,100404.80
2018-11-07T23:16:06.282Z,100417.98
2018-11-07T23:18:34.655Z,100417.62
2018-11-07T23:21:02.997Z,100413.83
2018-11-07T23:23:31.414Z,100419.80
2018-11-07T23:26:00.377Z,100426.64
2018-11-07T23:28:35.689Z,100426.67
2018-11-07T23:31:04.115Z,100422.41
2018-11-07T23:33:32.535Z,100434.28
2018-11-07T23:36:00.926Z,100443.63
2018-11-07T23:38:29.527Z,100438.97
2018-11-07T23:40:58.093Z,100442.39
2018-11-07T23:43:26.973Z,100443.70
2018-11-07T23:45:55.326Z,100444.13
2018-11-07T23:48:23.754Z,100436.08
2018-11-07T23:50:52.194Z,100440.30
2018-11-07T23:53:20.555Z,100445.02
2018-11-07T23:55:48.990Z,100447.11
2018-11-07T23:58:17.396Z,100447.91
